Time;durP1;ratioP1;P1;durP2;ratioP2;P2;SDS_P1;SDS_P2;PMS_P1;PMS_P2;Temp;Humidity;BMP_temperature;BMP_pressure;BME280_temperature;BME280_humidity;BME280_pressure;Samples;Min_cycle;Max_cycle;Signal;HPM_P1;HPM_P2
2022/11/23 00:00:30;;;;;;;3.65;1.70;;;;;;;;;;4905059;29;20048;-62
2022/11/23 00:02:56;;;;;;;8.13;2.25;;;;;;;;;;4896507;29;20040;-62
2022/11/23 00:05:22;;;;;;;6.68;1.70;;;;;;;;;;4895739;29;20121;-62
2022/11/23 00:07:48;;;;;;;6.63;1.90;;;;;;;;;;4896356;29;20381;-62
2022/11/23 00:10:14;;;;;;;7.97;1.90;;;;;;;;;;4893532;29;20482;-61
2022/11/23 00:12:39;;;;;;;5.70;1.88;;;;;;;;;;4893762;29;20033;-61
2022/11/23 00:15:06;;;;;;;3.30;1.33;;;;;;;;;;4909385;29;20052;-64
2022/11/23 00:17:31;;;;;;;4.47;1.80;;;;;;;;;;4906802;29;20493;-62
2022/11/23 00:19:57;;;;;;;5.05;1.77;;;;;;;;;;4890891;29;20065;-62
2022/11/23 00:22:22;;;;;;;8.55;1.90;;;;;;;;;;4898277;29;20601;-62
2022/11/23 00:24:48;;;;;;;7.70;2.03;;;;;;;;;;4909896;29;20028;-62
2022/11/23 00:27:13;;;;;;;6.45;1.90;;;;;;;;;;4879049;29;20041;-62
2022/11/23 00:29:39;;;;;;;4.22;1.90;;;;;;;;;;4906122;29;20036;-62
2022/11/23 00:32:04;;;;;;;5.70;1.88;;;;;;;;;;4896671;29;20044;-62
2022/11/23 00:34:30;;;;;;;8.65;1.83;;;;;;;;;;4899327;29;20060;-62
2022/11/23 00:36:55;;;;;;;4.32;1.50;;;;;;;;;;4901595;29;20028;-62
2022/11/23 00:39:21;;;;;;;5.28;1.48;;;;;;;;;;4913776;29;20301;-62
2022/11/23 00:41:46;;;;;;;5.80;1.77;;;;;;;;;;4897524;29;20553;-62
2022/11/23 00:44:12;;;;;;;4.88;1.50;;;;;;;;;;4900974;29;20111;-62
2022/11/23 00:46:37;;;;;;;7.45;1.77;;;;;;;;;;4909137;29;20060;-62
2022/11/23 00:49:03;;;;;;;8.55;2.17;;;;;;;;;;4906801;29;20115;-62
2022/11/23 00:51:31;;;;;;;7.53;1.60;;;;;;;;;;4919644;29;20655;-63
2022/11/23 00:53:58;;;;;;;2.97;1.23;;;;;;;;;;4900628;29;20063;-62
2022/11/23 00:56:24;;;;;;;6.18;1.60;;;;;;;;;;4906087;29;20036;-63
2022/11/23 00:58:54;;;;;;;6.05;1.67;;;;;;;;;;4902026;29;20068;-62
2022/11/23 01:01:23;;;;;;;5.87;1.90;;;;;;;;;;4906188;29;20047;-62
2022/11/23 01:03:51;;;;;;;6.55;1.85;;;;;;;;;;4889445;29;20642;-62
2022/11/23 01:06:25;;;;;;;5.05;1.80;;;;;;;;;;4907718;29;20040;-62
2022/11/23 01:08:56;;;;;;;6.15;1.80;;;;;;;;;;4908310;29;20036;-62
2022/11/23 01:11:24;;;;;;;6.55;2.00;;;;;;;;;;4916783;29;20032;-62
2022/11/23 01:13:49;;;;;;;5.55;1.80;;;;;;;;;;4904612;29;20047;-61
2022/11/23 01:16:21;;;;;;;7.60;2.00;;;;;;;;;;4912079;29;20033;-62
2022/11/23 01:18:46;;;;;;;8.38;2.30;;;;;;;;;;4905279;29;20043;-62
2022/11/23 01:21:13;;;;;;;9.18;2.08;;;;;;;;;;4898654;29;20025;-62
2022/11/23 01:23:38;;;;;;;7.30;2.10;;;;;;;;;;4910862;29;20063;-62
2022/11/23 01:26:09;;;;;;;8.88;2.30;;;;;;;;;;4898908;29;20064;-61
2022/11/23 01:28:35;;;;;;;8.63;2.20;;;;;;;;;;4911535;29;20036;-61
2022/11/23 01:31:05;;;;;;;4.97;1.90;;;;;;;;;;4903711;29;20279;-61
2022/11/23 01:33:30;;;;;;;7.53;1.80;;;;;;;;;;4895795;29;20040;-62
2022/11/23 01:35:56;;;;;;;8.60;1.90;;;;;;;;;;4896560;29;20029;-61
2022/11/23 01:38:21;;;;;;;3.65;1.92;;;;;;;;;;4893047;29;20033;-62
2022/11/23 01:40:47;;;;;;;7.65;1.95;;;;;;;;;;4896373;29;20040;-61
2022/11/23 01:43:16;;;;;;;5.25;1.83;;;;;;;;;;4895720;29;20037;-62
2022/11/23 01:45:58;;;;;;;6.22;1.90;;;;;;;;;;4897732;29;20469;-64
2022/11/23 01:48:29;;;;;;;3.35;1.70;;;;;;;;;;4904502;29;20485;-62
2022/11/23 01:50:57;;;;;;;5.15;1.88;;;;;;;;;;4915552;29;20039;-61
2022/11/23 01:53:25;;;;;;;8.15;1.70;;;;;;;;;;4907948;29;20495;-61
2022/11/23 01:55:51;;;;;;;7.35;1.90;;;;;;;;;;4903601;29;20060;-61
2022/11/23 01:58:22;;;;;;;6.10;2.00;;;;;;;;;;4905752;29;20032;-61
2022/11/23 02:00:48;;;;;;;5.38;1.85;;;;;;;;;;4909326;29;20036;-61
2022/11/23 02:03:14;;;;;;;4.90;1.88;;;;;;;;;;4903136;29;20052;-61
2022/11/23 02:05:46;;;;;;;6.03;1.83;;;;;;;;;;4903555;29;20028;-61
2022/11/23 02:08:14;;;;;;;5.53;2.80;;;;;;;;;;4901620;29;20500;-61
2022/11/23 02:10:39;;;;;;;7.65;1.90;;;;;;;;;;4897085;29;20040;-61
2022/11/23 02:13:08;;;;;;;4.45;1.90;;;;;;;;;;4903981;29;20039;-61
2022/11/23 02:15:34;;;;;;;5.68;2.05;;;;;;;;;;4894253;29;20043;-61
2022/11/23 02:18:02;;;;;;;5.85;1.95;;;;;;;;;;4895926;29;20041;-61
2022/11/23 02:20:28;;;;;;;6.63;1.90;;;;;;;;;;4894287;29;20191;-61
2022/11/23 02:23:17;;;;;;;6.60;2.00;;;;;;;;;;4898754;29;20083;-61
2022/11/23 02:25:43;;;;;;;5.20;2.05;;;;;;;;;;4906056;29;20052;-61
2022/11/23 02:28:14;;;;;;;7.60;2.00;;;;;;;;;;4896984;29;20362;-61
2022/11/23 02:30:41;;;;;;;7.15;2.30;;;;;;;;;;4899948;29;20206;-61
2022/11/23 02:33:06;;;;;;;8.77;1.83;;;;;;;;;;4887693;29;20060;-61
2022/11/23 02:35:33;;;;;;;8.02;2.15;;;;;;;;;;4894268;29;20155;-61
2022/11/23 02:38:01;;;;;;;4.28;2.10;;;;;;;;;;4910053;29;20457;-61
2022/11/23 02:40:35;;;;;;;3.13;1.48;;;;;;;;;;4913509;29;20115;-61
2022/11/23 02:43:01;;;;;;;6.70;2.03;;;;;;;;;;4906613;29;20065;-61
2022/11/23 02:45:35;;;;;;;5.20;1.83;;;;;;;;;;4896053;29;20096;-62
2022/11/23 02:48:00;;;;;;;6.07;1.88;;;;;;;;;;4895044;29;20036;-62
2022/11/23 02:50:27;;;;;;;9.73;2.05;;;;;;;;;;4895597;29;20151;-62
2022/11/23 02:52:52;;;;;;;3.70;1.80;;;;;;;;;;4891066;29;20056;-62
2022/11/23 02:55:18;;;;;;;7.57;2.00;;;;;;;;;;4909964;29;20126;-61
2022/11/23 02:57:43;;;;;;;6.78;1.90;;;;;;;;;;4895617;29;20071;-61
2022/11/23 03:00:09;;;;;;;6.60;1.85;;;;;;;;;;4904239;29;20060;-62
2022/11/23 03:02:35;;;;;;;8.00;1.90;;;;;;;;;;4900405;29;20120;-62
2022/11/23 03:05:00;;;;;;;5.90;1.92;;;;;;;;;;4894463;29;20431;-61
2022/11/23 03:07:26;;;;;;;4.95;1.55;;;;;;;;;;4907296;29;20553;-62
2022/11/23 03:09:51;;;;;;;6.53;2.03;;;;;;;;;;4896077;29;20044;-62
2022/11/23 03:12:16;;;;;;;7.32;1.90;;;;;;;;;;4899743;29;20051;-62
2022/11/23 03:14:42;;;;;;;7.03;1.75;;;;;;;;;;4897136;29;20028;-62
2022/11/23 03:17:07;;;;;;;7.25;1.60;;;;;;;;;;4899808;29;20137;-62
2022/11/23 03:19:33;;;;;;;3.92;1.80;;;;;;;;;;4899155;29;20032;-63
2022/11/23 03:21:58;;;;;;;5.28;1.70;;;;;;;;;;4896196;29;20131;-63
2022/11/23 03:24:23;;;;;;;4.68;1.73;;;;;;;;;;4900436;29;20040;-63
2022/11/23 03:26:49;;;;;;;6.03;1.70;;;;;;;;;;4895950;29;20040;-63
2022/11/23 03:29:14;;;;;;;4.80;1.60;;;;;;;;;;4893168;29;20536;-63
2022/11/23 03:31:40;;;;;;;5.93;1.55;;;;;;;;;;4895333;29;20040;-63
2022/11/23 03:34:05;;;;;;;5.95;1.70;;;;;;;;;;4895228;29;20092;-63
2022/11/23 03:36:30;;;;;;;5.82;1.40;;;;;;;;;;4906508;29;20032;-63
2022/11/23 03:38:56;;;;;;;3.28;1.40;;;;;;;;;;4902653;29;20040;-64
2022/11/23 03:41:21;;;;;;;5.55;1.75;;;;;;;;;;4894169;29;20032;-64
2022/11/23 03:43:46;;;;;;;3.63;1.50;;;;;;;;;;4900202;29;20036;-64
2022/11/23 03:46:12;;;;;;;4.60;1.50;;;;;;;;;;4902350;29;20036;-64
2022/11/23 03:48:37;;;;;;;6.40;1.70;;;;;;;;;;4894112;29;20064;-65
2022/11/23 03:51:03;;;;;;;7.90;2.03;;;;;;;;;;4894483;29;20200;-64
2022/11/23 03:53:28;;;;;;;4.43;1.50;;;;;;;;;;4899319;29;20060;-64
2022/11/23 03:55:56;;;;;;;4.85;1.60;;;;;;;;;;4915076;29;20063;-64
2022/11/23 03:58:21;;;;;;;5.38;1.50;;;;;;;;;;4904160;29;20115;-64
2022/11/23 04:00:47;;;;;;;4.35;1.55;;;;;;;;;;4896892;29;20176;-64
2022/11/23 04:03:12;;;;;;;7.57;1.70;;;;;;;;;;4895513;29;20031;-64
2022/11/23 04:05:38;;;;;;;4.50;1.90;;;;;;;;;;4897056;29;20894;-65
2022/11/23 04:08:03;;;;;;;6.72;2.00;;;;;;;;;;4906111;29;20036;-64
2022/11/23 04:10:29;;;;;;;8.23;2.28;;;;;;;;;;4916390;29;20067;-65
2022/11/23 04:12:54;;;;;;;7.07;2.63;;;;;;;;;;4910943;29;20450;-65
2022/11/23 04:15:19;;;;;;;6.65;2.25;;;;;;;;;;4899465;29;20043;-64
2022/11/23 04:17:45;;;;;;;5.95;2.30;;;;;;;;;;4906703;29;20378;-65
2022/11/23 04:20:11;;;;;;;5.00;2.40;;;;;;;;;;4930975;29;20040;-65
2022/11/23 04:22:37;;;;;;;5.93;2.60;;;;;;;;;;4907871;29;20531;-64
2022/11/23 04:25:03;;;;;;;6.45;2.50;;;;;;;;;;4915307;29;20036;-65
2022/11/23 04:27:28;;;;;;;4.85;2.60;;;;;;;;;;4929143;29;20511;-63
2022/11/23 04:29:53;;;;;;;12.18;3.28;;;;;;;;;;4915833;29;20072;-63
2022/11/23 04:32:19;;;;;;;7.82;2.95;;;;;;;;;;4902029;29;20430;-63
2022/11/23 04:34:44;;;;;;;10.35;3.25;;;;;;;;;;4916646;29;20117;-63
2022/11/23 04:37:10;;;;;;;12.65;3.00;;;;;;;;;;4914857;29;20031;-63
2022/11/23 04:39:36;;;;;;;8.43;3.10;;;;;;;;;;4913099;29;20071;-64
2022/11/23 04:42:01;;;;;;;7.10;2.60;;;;;;;;;;4918060;29;20465;-63
2022/11/23 04:44:26;;;;;;;10.32;2.67;;;;;;;;;;4916775;29;20032;-64
2022/11/23 04:46:52;;;;;;;13.27;2.53;;;;;;;;;;4903494;29;20441;-64
2022/11/23 04:49:17;;;;;;;8.75;2.90;;;;;;;;;;4898469;29;20115;-63
2022/11/23 04:51:43;;;;;;;8.20;2.83;;;;;;;;;;4898650;29;20119;-63
2022/11/23 04:54:08;;;;;;;8.15;2.38;;;;;;;;;;4898686;29;20089;-63
2022/11/23 04:56:34;;;;;;;6.90;2.55;;;;;;;;;;4896911;29;20037;-63
2022/11/23 04:58:59;;;;;;;8.40;2.50;;;;;;;;;;4898504;29;20031;-62
2022/11/23 05:01:25;;;;;;;5.50;2.25;;;;;;;;;;4896570;29;20499;-63
2022/11/23 05:03:50;;;;;;;8.75;2.70;;;;;;;;;;4896160;29;20029;-62
2022/11/23 05:06:17;;;;;;;9.65;2.90;;;;;;;;;;4899229;29;20052;-62
2022/11/23 05:08:42;;;;;;;5.75;2.47;;;;;;;;;;4898296;29;20829;-62
2022/11/23 05:11:08;;;;;;;11.45;2.60;;;;;;;;;;4913512;29;20028;-62
2022/11/23 05:13:34;;;;;;;6.97;2.42;;;;;;;;;;4897956;29;20036;-63
2022/11/23 05:15:59;;;;;;;6.47;2.38;;;;;;;;;;4898547;29;20040;-63
2022/11/23 05:18:24;;;;;;;6.72;2.50;;;;;;;;;;4896840;29;20256;-63
2022/11/23 05:20:50;;;;;;;7.00;2.85;;;;;;;;;;4898944;29;20043;-63
2022/11/23 05:23:15;;;;;;;11.73;2.92;;;;;;;;;;4898724;29;20378;-63
2022/11/23 05:25:41;;;;;;;6.32;2.90;;;;;;;;;;4897809;29;20067;-64
2022/11/23 05:28:13;;;;;;;5.80;2.40;;;;;;;;;;4898301;29;20462;-63
2022/11/23 05:30:38;;;;;;;9.15;2.70;;;;;;;;;;4897769;29;20047;-62
2022/11/23 05:33:04;;;;;;;7.60;2.60;;;;;;;;;;4896616;29;20113;-64
2022/11/23 05:35:29;;;;;;;6.20;2.95;;;;;;;;;;4897356;29;20442;-63
2022/11/23 05:37:55;;;;;;;12.38;3.65;;;;;;;;;;4898270;29;20477;-62
2022/11/23 05:40:21;;;;;;;7.40;2.80;;;;;;;;;;4896429;29;20028;-64
2022/11/23 05:42:46;;;;;;;10.73;2.85;;;;;;;;;;4898350;29;20138;-64
2022/11/23 05:45:12;;;;;;;10.98;3.53;;;;;;;;;;4898392;29;20044;-63
2022/11/23 05:47:37;;;;;;;7.63;3.20;;;;;;;;;;4897471;29;20044;-63
2022/11/23 05:50:03;;;;;;;10.68;3.42;;;;;;;;;;4895771;29;20036;-63
2022/11/23 05:52:28;;;;;;;9.13;2.90;;;;;;;;;;4896443;29;20045;-62
2022/11/23 05:54:54;;;;;;;8.75;2.80;;;;;;;;;;4897884;29;20049;-62
2022/11/23 05:57:21;;;;;;;8.13;2.60;;;;;;;;;;4898201;29;20036;-61
2022/11/23 05:59:46;;;;;;;10.13;2.70;;;;;;;;;;4896880;29;20037;-62
2022/11/23 06:02:12;;;;;;;11.88;3.78;;;;;;;;;;4896655;29;20040;-63
2022/11/23 06:04:37;;;;;;;7.97;2.90;;;;;;;;;;4897226;29;20036;-62
2022/11/23 06:07:03;;;;;;;9.73;3.00;;;;;;;;;;4898112;29;20037;-62
2022/11/23 06:09:28;;;;;;;8.85;2.80;;;;;;;;;;4897032;29;20058;-62
2022/11/23 06:11:54;;;;;;;8.52;2.80;;;;;;;;;;4897958;29;20037;-62
2022/11/23 06:14:20;;;;;;;10.77;3.13;;;;;;;;;;4898075;29;20047;-62
2022/11/23 06:16:45;;;;;;;9.05;2.97;;;;;;;;;;4895572;29;20393;-62
2022/11/23 06:19:11;;;;;;;7.68;2.42;;;;;;;;;;4896334;29;20040;-62
2022/11/23 06:21:36;;;;;;;12.43;2.30;;;;;;;;;;4896182;29;20032;-62
2022/11/23 06:24:01;;;;;;;9.25;2.70;;;;;;;;;;4897390;29;20111;-62
2022/11/23 06:26:27;;;;;;;8.05;2.30;;;;;;;;;;4896262;29;20032;-61
2022/11/23 06:28:52;;;;;;;9.68;2.92;;;;;;;;;;4896222;29;20043;-62
2022/11/23 06:31:18;;;;;;;9.52;2.40;;;;;;;;;;4897239;29;20058;-61
2022/11/23 06:33:43;;;;;;;9.32;3.33;;;;;;;;;;4894914;29;20028;-62
2022/11/23 06:36:10;;;;;;;5.93;2.55;;;;;;;;;;4891255;29;20033;-62
2022/11/23 06:38:35;;;;;;;8.77;2.42;;;;;;;;;;4876737;29;20029;-62
2022/11/23 06:41:01;;;;;;;11.68;3.30;;;;;;;;;;4877276;29;20033;-61
2022/11/23 06:43:27;;;;;;;8.80;2.72;;;;;;;;;;4878000;29;20070;-61
2022/11/23 06:45:53;;;;;;;8.10;2.58;;;;;;;;;;4878512;29;20109;-62
2022/11/23 06:48:19;;;;;;;9.05;2.35;;;;;;;;;;4878264;29;20431;-62
2022/11/23 06:50:44;;;;;;;6.28;2.55;;;;;;;;;;4880057;29;20157;-62
2022/11/23 06:53:13;;;;;;;10.32;2.70;;;;;;;;;;4896905;29;20052;-63
2022/11/23 06:55:38;;;;;;;7.65;2.50;;;;;;;;;;4896171;29;20477;-63
2022/11/23 06:58:04;;;;;;;6.63;2.45;;;;;;;;;;4897446;29;20052;-63
2022/11/23 07:00:31;;;;;;;9.13;2.85;;;;;;;;;;4890105;29;20430;-63
2022/11/23 07:02:56;;;;;;;8.27;2.50;;;;;;;;;;4878457;29;20081;-63
2022/11/23 07:05:23;;;;;;;7.00;2.38;;;;;;;;;;4878160;29;20033;-63
2022/11/23 07:07:48;;;;;;;12.50;3.40;;;;;;;;;;4877290;29;20056;-64
2022/11/23 07:10:14;;;;;;;8.00;2.60;;;;;;;;;;4878098;29;20597;-64
2022/11/23 07:12:40;;;;;;;7.80;2.40;;;;;;;;;;4877476;29;20079;-65
2022/11/23 07:15:06;;;;;;;6.05;2.60;;;;;;;;;;4884258;29;20075;-64
2022/11/23 07:17:32;;;;;;;11.30;3.00;;;;;;;;;;4894195;29;20044;-64
2022/11/23 07:19:57;;;;;;;7.53;2.42;;;;;;;;;;4896286;29;20032;-61
2022/11/23 07:22:23;;;;;;;11.10;2.90;;;;;;;;;;4895385;29;20037;-63
2022/11/23 07:24:48;;;;;;;10.73;2.63;;;;;;;;;;4895610;29;20032;-63
2022/11/23 07:27:16;;;;;;;6.35;2.22;;;;;;;;;;4896498;29;20494;-62
2022/11/23 07:29:41;;;;;;;6.57;2.42;;;;;;;;;;4894788;29;20371;-63
2022/11/23 07:32:07;;;;;;;9.02;2.45;;;;;;;;;;4894223;29;20037;-63
2022/11/23 07:34:33;;;;;;;8.05;2.40;;;;;;;;;;4895740;29;20040;-63
2022/11/23 07:36:58;;;;;;;8.73;2.42;;;;;;;;;;4897210;29;20032;-62
2022/11/23 07:39:23;;;;;;;11.18;2.80;;;;;;;;;;4899965;29;20492;-62
2022/11/23 07:41:49;;;;;;;7.72;2.30;;;;;;;;;;4898304;29;20028;-63
2022/11/23 07:44:15;;;;;;;10.52;2.63;;;;;;;;;;4899157;29;20026;-62
2022/11/23 07:46:40;;;;;;;8.48;2.50;;;;;;;;;;4898660;29;20036;-62
2022/11/23 07:49:06;;;;;;;7.68;2.50;;;;;;;;;;4898700;29;20036;-62
2022/11/23 07:51:31;;;;;;;6.85;2.15;;;;;;;;;;4897934;29;20470;-64
2022/11/23 07:53:57;;;;;;;9.82;2.10;;;;;;;;;;4900051;29;20052;-62
2022/11/23 07:56:22;;;;;;;8.40;2.05;;;;;;;;;;4900367;29;20039;-62
2022/11/23 07:58:48;;;;;;;7.82;2.17;;;;;;;;;;4898952;29;20377;-62
2022/11/23 08:01:17;;;;;;;8.23;2.03;;;;;;;;;;4898343;29;20394;-61
2022/11/23 08:03:44;;;;;;;8.63;1.77;;;;;;;;;;4898974;29;20064;-61
2022/11/23 08:06:10;;;;;;;5.93;2.10;;;;;;;;;;4898760;29;20047;-62
2022/11/23 08:08:35;;;;;;;7.13;1.98;;;;;;;;;;4898742;29;20397;-60
2022/11/23 08:11:01;;;;;;;5.85;1.70;;;;;;;;;;4899466;29;20092;-62
2022/11/23 08:13:26;;;;;;;7.93;2.00;;;;;;;;;;4900069;29;20033;-63
2022/11/23 08:15:52;;;;;;;10.45;2.00;;;;;;;;;;4897881;29;20875;-62
2022/11/23 08:18:17;;;;;;;5.25;1.83;;;;;;;;;;4898860;29;20397;-60
2022/11/23 08:20:43;;;;;;;4.82;1.60;;;;;;;;;;4898736;29;20489;-60
2022/11/23 08:23:08;;;;;;;8.93;2.15;;;;;;;;;;4882807;29;20032;-61
2022/11/23 08:25:34;;;;;;;6.03;2.13;;;;;;;;;;4897850;29;20465;-61
2022/11/23 08:28:01;;;;;;;5.35;1.60;;;;;;;;;;4899871;29;20036;-61
2022/11/23 08:30:28;;;;;;;9.07;1.80;;;;;;;;;;4899447;29;20028;-61
2022/11/23 08:32:54;;;;;;;5.88;1.42;;;;;;;;;;4896048;29;20493;-61
2022/11/23 08:35:20;;;;;;;5.43;1.60;;;;;;;;;;4899135;29;20032;-61
2022/11/23 08:37:45;;;;;;;4.88;1.60;;;;;;;;;;4899127;29;20541;-63
2022/11/23 08:40:12;;;;;;;4.05;1.60;;;;;;;;;;4897628;29;20056;-61
2022/11/23 08:42:37;;;;;;;7.13;1.73;;;;;;;;;;4898505;29;20034;-61
2022/11/23 08:45:04;;;;;;;3.53;1.60;;;;;;;;;;4898395;29;20036;-60
2022/11/23 08:47:30;;;;;;;7.43;1.70;;;;;;;;;;4897786;29;20504;-61
2022/11/23 08:49:56;;;;;;;7.90;1.50;;;;;;;;;;4898072;29;20048;-60
2022/11/23 08:52:21;;;;;;;4.85;1.55;;;;;;;;;;4899184;29;20033;-60
2022/11/23 08:54:46;;;;;;;5.00;1.60;;;;;;;;;;4898440;29;20053;-60
2022/11/23 08:57:12;;;;;;;8.15;2.00;;;;;;;;;;4913909;29;20029;-60
2022/11/23 08:59:37;;;;;;;7.78;1.83;;;;;;;;;;4896733;29;20450;-59
2022/11/23 09:02:03;;;;;;;4.55;1.40;;;;;;;;;;4898003;29;20037;-60
2022/11/23 09:04:29;;;;;;;6.13;1.70;;;;;;;;;;4899415;29;20120;-59
2022/11/23 09:06:55;;;;;;;8.15;2.15;;;;;;;;;;4897345;29;20032;-59
2022/11/23 09:09:21;;;;;;;6.30;1.90;;;;;;;;;;4898934;29;20176;-60
2022/11/23 09:11:47;;;;;;;4.65;1.48;;;;;;;;;;4896491;29;20528;-60
2022/11/23 09:14:13;;;;;;;7.30;1.55;;;;;;;;;;4896422;29;20036;-60
2022/11/23 09:16:38;;;;;;;7.22;1.70;;;;;;;;;;4891494;29;20399;-58
2022/11/23 09:19:06;;;;;;;7.47;1.88;;;;;;;;;;4879900;29;20116;-58
2022/11/23 09:21:34;;;;;;;7.25;1.52;;;;;;;;;;4880057;29;20029;-59
2022/11/23 09:24:00;;;;;;;8.25;1.90;;;;;;;;;;4879371;29;20474;-58
2022/11/23 09:26:25;;;;;;;7.97;1.58;;;;;;;;;;4880054;29;20044;-59
2022/11/23 09:28:51;;;;;;;10.43;2.00;;;;;;;;;;4879093;29;20482;-58
2022/11/23 09:31:16;;;;;;;8.57;1.60;;;;;;;;;;4897632;29;20028;-61
2022/11/23 09:33:41;;;;;;;6.90;1.70;;;;;;;;;;4896961;29;20037;-59
2022/11/23 09:36:07;;;;;;;10.60;1.73;;;;;;;;;;4897162;29;20465;-59
2022/11/23 09:38:32;;;;;;;11.23;2.20;;;;;;;;;;4898429;29;20077;-60
2022/11/23 09:41:27;;;;;;;9.07;2.10;;;;;;;;;;4896245;29;20040;-61
2022/11/23 09:44:09;;;;;;;6.50;1.98;;;;;;;;;;4895274;29;20538;-60
2022/11/23 09:47:13;;;;;;;6.35;1.63;;;;;;;;;;4892002;29;20033;-62
2022/11/23 09:50:03;;;;;;;7.00;1.73;;;;;;;;;;4875052;29;20109;-61
2022/11/23 09:52:30;;;;;;;11.82;1.80;;;;;;;;;;4879265;29;20040;-60
2022/11/23 09:55:02;;;;;;;7.70;1.75;;;;;;;;;;4878282;29;20057;-59
2022/11/23 09:57:31;;;;;;;5.80;1.70;;;;;;;;;;4893841;29;20116;-60
2022/11/23 10:00:17;;;;;;;6.63;1.65;;;;;;;;;;4900716;29;20032;-60
2022/11/23 10:02:43;;;;;;;7.95;1.80;;;;;;;;;;4895885;29;20417;-59
2022/11/23 10:05:17;;;;;;;9.13;1.85;;;;;;;;;;4896974;29;20048;-59
2022/11/23 10:08:09;;;;;;;7.00;1.50;;;;;;;;;;4897377;29;20028;-59
2022/11/23 10:10:43;;;;;;;8.35;2.00;;;;;;;;;;4896731;29;20485;-60
2022/11/23 10:13:21;;;;;;;8.50;1.45;;;;;;;;;;4897727;29;20362;-60
2022/11/23 10:15:57;;;;;;;10.30;2.20;;;;;;;;;;4896116;29;20041;-58
2022/11/23 10:18:35;;;;;;;6.30;1.65;;;;;;;;;;4896357;29;20028;-62
2022/11/23 10:21:29;;;;;;;7.20;1.70;;;;;;;;;;4896768;29;20063;-61
2022/11/23 10:24:02;;;;;;;4.05;1.33;;;;;;;;;;4895798;29;20036;-61
2022/11/23 10:26:38;;;;;;;9.95;1.95;;;;;;;;;;4897655;29;20462;-59
2022/11/23 10:29:14;;;;;;;7.30;2.00;;;;;;;;;;4895362;29;20055;-60
2022/11/23 10:31:44;;;;;;;10.13;1.85;;;;;;;;;;4878055;29;20056;-59
2022/11/23 10:34:13;;;;;;;4.47;1.42;;;;;;;;;;4878864;29;20081;-59
2022/11/23 10:36:39;;;;;;;8.35;1.75;;;;;;;;;;4878931;29;20044;-60
2022/11/23 10:39:24;;;;;;;6.32;1.65;;;;;;;;;;4878914;29;20033;-59
2022/11/23 10:41:51;;;;;;;6.40;2.13;;;;;;;;;;4878311;29;20037;-59
2022/11/23 10:44:16;;;;;;;4.85;1.67;;;;;;;;;;4883454;29;20439;-60
2022/11/23 10:46:42;;;;;;;7.78;1.83;;;;;;;;;;4896867;29;20529;-59
2022/11/23 10:49:21;;;;;;;7.43;2.45;;;;;;;;;;4897302;29;20096;-59
2022/11/23 10:51:54;;;;;;;6.80;1.48;;;;;;;;;;4896577;29;20040;-60
2022/11/23 10:54:38;;;;;;;9.50;1.90;;;;;;;;;;4896984;29;20060;-59
2022/11/23 10:57:33;;;;;;;9.50;2.10;;;;;;;;;;4896756;29;20378;-61
2022/11/23 11:00:14;;;;;;;5.55;1.90;;;;;;;;;;4893960;29;20045;-59
2022/11/23 11:02:48;;;;;;;10.07;2.17;;;;;;;;;;4896880;29;20115;-60
2022/11/23 11:05:28;;;;;;;7.20;2.22;;;;;;;;;;4895865;29;20123;-60
2022/11/23 11:07:56;;;;;;;5.70;2.05;;;;;;;;;;4896306;29;20101;-60
2022/11/23 11:10:40;;;;;;;11.43;1.80;;;;;;;;;;4897266;29;20084;-60
2022/11/23 11:13:22;;;;;;;6.80;1.70;;;;;;;;;;4896386;29;20032;-61
2022/11/23 11:15:55;;;;;;;8.65;2.35;;;;;;;;;;4889919;29;20041;-61
2022/11/23 11:18:21;;;;;;;4.70;1.50;;;;;;;;;;4877881;29;20036;-60
2022/11/23 11:20:46;;;;;;;8.32;1.90;;;;;;;;;;4877223;29;20055;-60
2022/11/23 11:23:21;;;;;;;9.15;1.95;;;;;;;;;;4877935;29;20026;-60
2022/11/23 11:25:48;;;;;;;5.60;1.75;;;;;;;;;;4877476;29;20061;-60
2022/11/23 11:28:40;;;;;;;7.68;1.65;;;;;;;;;;4877804;29;20033;-60
2022/11/23 11:31:16;;;;;;;8.70;1.90;;;;;;;;;;4880081;29;20040;-61
2022/11/23 11:33:50;;;;;;;8.13;2.13;;;;;;;;;;4894910;29;20043;-62
2022/11/23 11:36:16;;;;;;;6.50;1.75;;;;;;;;;;4895277;29;20068;-61
2022/11/23 11:38:47;;;;;;;5.30;1.70;;;;;;;;;;4895133;29;20037;-60
2022/11/23 11:41:15;;;;;;;6.45;1.60;;;;;;;;;;4895480;29;20041;-61
2022/11/23 11:43:48;;;;;;;10.43;2.08;;;;;;;;;;4896887;29;20041;-61
2022/11/23 11:46:15;;;;;;;7.07;1.60;;;;;;;;;;4896895;29;20075;-60
2022/11/23 11:49:11;;;;;;;8.32;1.83;;;;;;;;;;4896571;29;20033;-60
2022/11/23 11:51:40;;;;;;;4.53;1.23;;;;;;;;;;4896528;29;20033;-60
2022/11/23 11:54:41;;;;;;;3.95;1.40;;;;;;;;;;4894088;29;20080;-60
2022/11/23 11:57:36;;;;;;;6.85;1.55;;;;;;;;;;4894461;29;20044;-60
2022/11/23 12:00:06;;;;;;;7.68;1.63;;;;;;;;;;4895688;29;20036;-61
2022/11/23 12:02:50;;;;;;;5.40;1.52;;;;;;;;;;4896476;29;20033;-60
2022/11/23 12:05:58;;;;;;;9.25;1.88;;;;;;;;;;4896187;29;20112;-60
2022/11/23 12:08:39;;;;;;;3.53;1.55;;;;;;;;;;4856749;29;20058;-60
2022/11/23 12:11:06;;;;;;;6.13;1.40;;;;;;;;;;4842666;29;20150;-61
2022/11/23 12:13:34;;;;;;;4.47;1.55;;;;;;;;;;4837052;29;20416;-61
2022/11/23 12:16:27;;;;;;;8.65;1.85;;;;;;;;;;4838210;29;20042;-61
2022/11/23 12:19:04;;;;;;;6.97;1.67;;;;;;;;;;4837889;29;20064;-60
2022/11/23 12:21:44;;;;;;;6.68;1.70;;;;;;;;;;4838463;29;20116;-60
2022/11/23 12:24:35;;;;;;;10.75;2.15;;;;;;;;;;4840807;29;20090;-61
2022/11/23 12:27:09;;;;;;;9.18;1.95;;;;;;;;;;4839913;29;20053;-61
2022/11/23 12:29:49;;;;;;;7.97;1.65;;;;;;;;;;4823426;29;20046;-60
2022/11/23 12:32:52;;;;;;;7.90;1.83;;;;;;;;;;4815237;29;20082;-61
2022/11/23 12:35:46;;;;;;;6.78;1.77;;;;;;;;;;4819091;29;20150;-60
2022/11/23 12:38:14;;;;;;;7.57;1.85;;;;;;;;;;4829083;29;20040;-61
2022/11/23 12:40:58;;;;;;;8.55;1.88;;;;;;;;;;4880889;29;20033;-60
2022/11/23 12:43:42;;;;;;;9.25;2.00;;;;;;;;;;4880761;29;20041;-61
2022/11/23 12:46:26;;;;;;;8.55;1.70;;;;;;;;;;4882276;29;20120;-61
2022/11/23 12:49:07;;;;;;;5.10;2.05;;;;;;;;;;4897400;29;20040;-61
2022/11/23 12:51:51;;;;;;;7.20;1.88;;;;;;;;;;4899300;29;20060;-60
2022/11/23 12:54:35;;;;;;;5.47;1.88;;;;;;;;;;4899356;29;20061;-60
2022/11/23 12:57:25;;;;;;;7.65;1.83;;;;;;;;;;4898110;29;20051;-60
2022/11/23 13:00:21;;;;;;;6.15;1.85;;;;;;;;;;4897180;29;20092;-61
2022/11/23 13:02:55;;;;;;;4.88;1.85;;;;;;;;;;4885848;29;20545;-61
2022/11/23 13:05:39;;;;;;;4.25;1.55;;;;;;;;;;4897987;29;20118;-60
2022/11/23 13:08:55;;;;;;;7.03;1.52;;;;;;;;;;4898458;29;20056;-59
2022/11/23 13:11:32;;;;;;;8.07;1.83;;;;;;;;;;4857856;29;20060;-60
2022/11/23 13:14:46;;;;;;;5.63;1.70;;;;;;;;;;4857900;29;20041;-60
2022/11/23 13:17:36;;;;;;;5.05;1.80;;;;;;;;;;4804837;29;20058;-60
2022/11/23 13:20:40;;;;;;;8.38;2.38;;;;;;;;;;4856110;29;20048;-60
2022/11/23 13:23:07;;;;;;;5.03;1.88;;;;;;;;;;4858205;29;20054;-59
2022/11/23 13:25:32;;;;;;;7.78;1.90;;;;;;;;;;4859248;29;20585;-61
2022/11/23 13:28:01;;;;;;;5.63;2.08;;;;;;;;;;4858290;29;20104;-60
2022/11/23 13:30:26;;;;;;;8.35;1.90;;;;;;;;;;4859073;29;20037;-60
2022/11/23 13:32:58;;;;;;;9.55;2.00;;;;;;;;;;4858116;29;20070;-61
2022/11/23 13:35:24;;;;;;;6.43;1.88;;;;;;;;;;4858155;29;20045;-61
2022/11/23 13:37:54;;;;;;;7.43;1.70;;;;;;;;;;4857650;29;20040;-61
2022/11/23 13:40:30;;;;;;;8.55;1.90;;;;;;;;;;4858860;29;20034;-60
2022/11/23 13:43:00;;;;;;;8.55;2.20;;;;;;;;;;4875699;29;20060;-61
2022/11/23 13:45:29;;;;;;;8.50;2.00;;;;;;;;;;4893883;29;20429;-61
2022/11/23 13:48:10;;;;;;;6.22;1.90;;;;;;;;;;4878880;29;20041;-60
2022/11/23 13:50:37;;;;;;;5.85;1.75;;;;;;;;;;4879713;29;20036;-61
2022/11/23 13:53:17;;;;;;;7.03;1.40;;;;;;;;;;4880346;29;20055;-60
2022/11/23 13:55:44;;;;;;;4.38;1.88;;;;;;;;;;4898258;29;20083;-61
2022/11/23 13:58:25;;;;;;;6.00;1.90;;;;;;;;;;4897626;29;20489;-60
2022/11/23 14:00:52;;;;;;;5.97;1.90;;;;;;;;;;4910806;29;20468;-61
2022/11/23 14:03:47;;;;;;;5.25;2.03;;;;;;;;;;4915671;29;20043;-61
2022/11/23 14:06:21;;;;;;;10.05;2.80;;;;;;;;;;4914880;29;20126;-60
2022/11/23 14:08:51;;;;;;;6.20;2.20;;;;;;;;;;4904961;29;20055;-61
2022/11/23 14:11:21;;;;;;;5.88;2.28;;;;;;;;;;4895730;29;20032;-59
2022/11/23 14:14:00;;;;;;;6.10;1.98;;;;;;;;;;4898044;29;20055;-60
2022/11/23 14:16:54;;;;;;;4.75;1.67;;;;;;;;;;4897760;29;20075;-60
2022/11/23 14:19:41;;;;;;;6.43;1.98;;;;;;;;;;4897607;29;20057;-61
2022/11/23 14:22:22;;;;;;;7.18;2.00;;;;;;;;;;4896791;29;20466;-60
2022/11/23 14:25:01;;;;;;;8.55;2.10;;;;;;;;;;4896582;29;20044;-59
2022/11/23 14:28:06;;;;;;;6.93;1.98;;;;;;;;;;4897677;29;20040;-61
2022/11/23 14:30:43;;;;;;;5.05;1.92;;;;;;;;;;4912082;29;20033;-60
2022/11/23 14:33:27;;;;;;;6.55;2.20;;;;;;;;;;4896623;29;20500;-59
2022/11/23 14:36:05;;;;;;;10.25;2.05;;;;;;;;;;4896839;29;20028;-60
2022/11/23 14:38:38;;;;;;;6.55;2.20;;;;;;;;;;4910685;29;20123;-60
2022/11/23 14:41:16;;;;;;;7.25;2.30;;;;;;;;;;4895017;29;20040;-60
2022/11/23 14:43:43;;;;;;;4.90;2.00;;;;;;;;;;4897753;29;20052;-60
2022/11/23 14:46:21;;;;;;;4.47;2.10;;;;;;;;;;4896491;29;20470;-61
2022/11/23 14:48:48;;;;;;;8.43;2.20;;;;;;;;;;4896881;29;20456;-61
2022/11/23 14:51:25;;;;;;;7.88;2.40;;;;;;;;;;4895161;29;20174;-60
2022/11/23 14:53:54;;;;;;;5.25;2.38;;;;;;;;;;4894444;29;20060;-60
2022/11/23 14:56:32;;;;;;;8.55;2.00;;;;;;;;;;4896760;29;20044;-60
2022/11/23 14:59:07;;;;;;;9.23;2.50;;;;;;;;;;4879646;29;20064;-61